Time;durP1;ratioP1;P1;durP2;ratioP2;P2;SDS_P1;SDS_P2;PMS_P1;PMS_P2;Temp;Humidity;BMP_temperature;BMP_pressure;BME280_temperature;BME280_humidity;BME280_pressure;Samples;Min_cycle;Max_cycle;Signal;HPM_P1;HPM_P2
2023/02/21 02:23:41;;;;;;;29.73;19.80;;;11.80;47.20;;;;;;20918199;28;20088;-57
2023/02/21 02:34:13;;;;;;;20.67;10.63;;;11.60;47.80;;;;;;20917894;28;20041;-61
2023/02/21 02:44:24;;;;;;;15.38;7.05;;;11.50;47.80;;;;;;20916063;28;20397;-61
2023/02/21 02:54:26;;;;;;;12.88;5.60;;;11.40;48.20;;;;;;20915020;28;20055;-67
2023/02/21 03:04:51;;;;;;;13.77;5.50;;;11.40;48.10;;;;;;20917060;28;20048;-57
2023/02/21 03:15:07;;;;;;;10.33;4.90;;;11.50;47.60;;;;;;20915532;28;20135;-57
2023/02/21 03:25:14;;;;;;;11.10;5.10;;;11.40;48.10;;;;;;20914705;28;20107;-63
2023/02/21 03:35:17;;;;;;;11.68;5.28;;;11.40;48.20;;;;;;20914148;28;20044;-64
2023/02/21 03:45:20;;;;;;;11.50;5.22;;;11.40;48.20;;;;;;20913767;28;20072;-56
2023/02/21 03:55:22;;;;;;;7.45;4.25;;;11.30;48.40;;;;;;20925316;28;20045;-56
2023/02/21 04:05:24;;;;;;;10.60;4.05;;;11.20;49.10;;;;;;20930165;28;20061;-57
2023/02/21 04:15:26;;;;;;;9.50;4.80;;;11.10;49.70;;;;;;20927822;28;20076;-57
2023/02/21 04:25:28;;;;;;;14.25;4.45;;;10.90;50.10;;;;;;20927247;28;20558;-57
2023/02/21 04:35:30;;;;;;;13.73;5.30;;;10.80;50.80;;;;;;20927025;28;20107;-67
2023/02/21 04:45:31;;;;;;;7.85;4.18;;;10.60;51.10;;;;;;20928803;28;20045;-60
2023/02/21 04:55:34;;;;;;;11.25;3.92;;;10.50;50.70;;;;;;20926375;28;20103;-64
2023/02/21 05:05:36;;;;;;;7.20;3.78;;;10.50;50.50;;;;;;20925417;28;20077;-65
2023/02/21 05:15:37;;;;;;;7.03;4.03;;;10.50;50.60;;;;;;20928393;28;20048;-68
2023/02/21 05:25:39;;;;;;;12.20;5.38;;;10.30;50.80;;;;;;20924146;28;20084;-57
2023/02/21 05:35:41;;;;;;;8.02;3.97;;;10.30;50.90;;;;;;20924553;28;20061;-63
2023/02/21 05:45:42;;;;;;;7.90;4.10;;;10.30;51.10;;;;;;20922934;28;20053;-58
2023/02/21 05:55:44;;;;;;;6.72;3.67;;;10.20;51.60;;;;;;20922942;28;20458;-59
2023/02/21 06:05:45;;;;;;;10.75;3.80;;;10.10;52.10;;;;;;20920586;28;20051;-57
2023/02/21 06:15:47;;;;;;;7.95;4.57;;;10.00;52.80;;;;;;20919458;28;20060;-57
2023/02/21 06:25:49;;;;;;;13.55;4.30;;;10.00;53.50;;;;;;20918140;28;20057;-58
2023/02/21 06:35:51;;;;;;;8.80;4.05;;;10.00;53.20;;;;;;20918229;28;20539;-58
2023/02/21 06:45:53;;;;;;;10.65;4.57;;;10.00;52.90;;;;;;20915932;28;20055;-62
2023/02/21 06:55:54;;;;;;;11.65;5.50;;;10.00;53.00;;;;;;20915516;28;20052;-56
2023/02/21 07:05:56;;;;;;;23.15;5.82;;;10.00;53.40;;;;;;20914352;28;20159;-62
2023/02/21 07:15:57;;;;;;;11.60;4.85;;;10.00;53.00;;;;;;20914716;28;20053;-58
2023/02/21 07:25:59;;;;;;;14.02;6.35;;;10.10;52.90;;;;;;20912764;28;20061;-58
2023/02/21 07:36:00;;;;;;;14.02;6.78;;;10.20;53.60;;;;;;20911992;28;20048;-56
2023/02/21 07:46:03;;;;;;;19.55;6.72;;;10.30;53.10;;;;;;20912832;28;20132;-57
2023/02/21 07:56:05;;;;;;;12.50;5.53;;;10.60;52.20;;;;;;20912606;28;20073;-58
2023/02/21 08:06:09;;;;;;;24.23;6.00;;;10.70;52.70;;;;;;20912125;28;20057;-58
2023/02/21 08:16:10;;;;;;;13.90;5.18;;;10.70;52.70;;;;;;20910556;28;20049;-59
2023/02/21 08:26:12;;;;;;;17.88;5.82;;;10.80;52.50;;;;;;20910880;28;20060;-57
2023/02/21 08:36:14;;;;;;;11.45;5.40;;;11.00;52.20;;;;;;20913993;28;20056;-58
2023/02/21 08:46:16;;;;;;;17.35;5.72;;;11.00;51.60;;;;;;20925380;28;20053;-57
2023/02/21 08:56:19;;;;;;;19.23;5.85;;;11.20;50.80;;;;;;20926666;28;20057;-59
2023/02/21 09:06:20;;;;;;;12.88;5.13;;;11.60;54.20;;;;;;20923433;28;20049;-59
2023/02/21 09:16:22;;;;;;;18.15;5.63;;;11.90;50.70;;;;;;20923775;28;20045;-58
2023/02/21 09:26:25;;;;;;;15.77;5.78;;;12.20;53.90;;;;;;20921638;28;20102;-58
2023/02/21 09:36:27;;;;;;;15.50;5.25;;;12.20;53.20;;;;;;20921806;28;20052;-57
2023/02/21 09:46:51;;;;;;;11.95;4.75;;;12.30;51.80;;;;;;20919571;28;20135;-59
2023/02/21 09:56:56;;;;;;;10.10;5.47;;;12.70;49.00;;;;;;20920781;28;20052;-58
2023/02/21 10:07:12;;;;;;;12.03;4.20;;;13.00;48.80;;;;;;20920169;28;20155;-57
2023/02/21 10:17:22;;;;;;;12.38;4.03;;;13.40;45.70;;;;;;20919594;28;20041;-58
2023/02/21 10:27:31;;;;;;;10.23;3.70;;;13.70;44.00;;;;;;20917610;28;20413;-58
2023/02/21 10:37:55;;;;;;;9.63;4.53;;;13.80;41.90;;;;;;20917482;28;20425;-58
2023/02/21 10:48:01;;;;;;;10.30;3.80;;;14.10;41.80;;;;;;20918624;28;20049;-58
2023/02/21 10:58:09;;;;;;;11.38;4.72;;;14.30;40.90;;;;;;20914763;28;20103;-59
2023/02/21 11:08:12;;;;;;;20.67;5.20;;;14.50;41.60;;;;;;20900346;28;20092;-55
2023/02/21 11:18:16;;;;;;;11.35;4.38;;;14.80;40.20;;;;;;20883273;28;20049;-56
2023/02/21 11:28:21;;;;;;;9.87;4.40;;;15.10;39.50;;;;;;20901657;28;20583;-56
2023/02/21 11:38:49;;;;;;;;;;;15.30;40.70;;;;;;20863415;28;20057;-59
2023/02/21 11:49:12;;;;;;;18.98;4.70;;;15.70;41.30;;;;;;20848758;28;20257;-55
2023/02/21 11:59:47;;;;;;;15.50;5.10;;;16.10;38.40;;;;;;20892982;28;20045;-57
2023/02/21 12:10:05;;;;;;;20.67;5.70;;;16.00;37.80;;;;;;20853468;28;20472;-57
2023/02/21 12:20:25;;;;;;;15.52;4.70;;;16.20;37.50;;;;;;20886332;28;20056;-58
2023/02/21 12:30:51;;;;;;;27.83;6.00;;;;;;;;;;20843459;28;20067;-61
2023/02/21 12:41:22;;;;;;;38.08;6.88;;;17.20;46.60;;;;;;20960350;28;20105;-55
2023/02/21 12:51:41;;;;;;;21.98;5.78;;;17.60;39.50;;;;;;20976574;28;20084;-56
